sensor_id;sensor_type;location;lat;lon;timestamp;temperature;humidity
13389;DHT22;6764;53.250;10.410;2022-07-12T00:01:07;16.80;99.90
13389;DHT22;6764;53.250;10.410;2022-07-12T00:03:33;16.70;99.90
13389;DHT22;6764;53.250;10.410;2022-07-12T00:05:59;16.70;99.90
13389;DHT22;6764;53.250;10.410;2022-07-12T00:08:25;16.70;99.90
13389;DHT22;6764;53.250;10.410;2022-07-12T00:10:51;16.60;99.90
13389;DHT22;6764;53.250;10.410;2022-07-12T00:13:17;16.60;99.90
13389;DHT22;6764;53.250;10.410;2022-07-12T00:15:43;16.60;99.90
13389;DHT22;6764;53.250;10.410;2022-07-12T00:18:08;16.60;99.90
13389;DHT22;6764;53.250;10.410;2022-07-12T00:20:35;16.60;99.90
13389;DHT22;6764;53.250;10.410;2022-07-12T00:23:01;16.60;99.90
13389;DHT22;6764;53.250;10.410;2022-07-12T00:25:26;16.50;99.90
13389;DHT22;6764;53.250;10.410;2022-07-12T00:27:52;16.50;99.90
13389;DHT22;6764;53.250;10.410;2022-07-12T00:30:18;16.50;99.90
13389;DHT22;6764;53.250;10.410;2022-07-12T00:32:44;16.50;99.90
13389;DHT22;6764;53.250;10.410;2022-07-12T00:35:10;16.50;99.90
13389;DHT22;6764;53.250;10.410;2022-07-12T00:37:36;16.50;99.90
13389;DHT22;6764;53.250;10.410;2022-07-12T00:40:05;16.50;99.90
13389;DHT22;6764;53.250;10.410;2022-07-12T00:42:31;16.40;99.90
13389;DHT22;6764;53.250;10.410;2022-07-12T00:44:58;16.40;99.90
13389;DHT22;6764;53.250;10.410;2022-07-12T00:47:44;16.30;99.90
13389;DHT22;6764;53.250;10.410;2022-07-12T00:50:15;16.30;99.90
13389;DHT22;6764;53.250;10.410;2022-07-12T00:52:42;16.30;99.90
13389;DHT22;6764;53.250;10.410;2022-07-12T00:55:09;16.30;99.90
13389;DHT22;6764;53.250;10.410;2022-07-12T00:57:35;16.20;99.90
13389;DHT22;6764;53.250;10.410;2022-07-12T01:00:03;16.20;99.90
13389;DHT22;6764;53.250;10.410;2022-07-12T01:02:30;16.20;99.90
13389;DHT22;6764;53.250;10.410;2022-07-12T01:04:56;16.10;99.90
13389;DHT22;6764;53.250;10.410;2022-07-12T01:07:23;16.10;99.90
13389;DHT22;6764;53.250;10.410;2022-07-12T01:09:51;16.10;99.90
13389;DHT22;6764;53.250;10.410;2022-07-12T01:12:19;16.00;99.90
13389;DHT22;6764;53.250;10.410;2022-07-12T01:14:46;16.00;99.90
13389;DHT22;6764;53.250;10.410;2022-07-12T01:17:12;16.00;99.90
13389;DHT22;6764;53.250;10.410;2022-07-12T01:19:38;16.00;99.90
13389;DHT22;6764;53.250;10.410;2022-07-12T01:22:09;15.90;99.90
13389;DHT22;6764;53.250;10.410;2022-07-12T01:24:35;15.90;99.90
13389;DHT22;6764;53.250;10.410;2022-07-12T01:27:03;15.90;99.90
13389;DHT22;6764;53.250;10.410;2022-07-12T01:29:30;15.80;99.90
13389;DHT22;6764;53.250;10.410;2022-07-12T01:31:56;15.80;99.90
13389;DHT22;6764;53.250;10.410;2022-07-12T01:34:42;15.70;99.90
13389;DHT22;6764;53.250;10.410;2022-07-12T01:37:09;15.70;99.90
13389;DHT22;6764;53.250;10.410;2022-07-12T01:39:35;15.70;99.90
13389;DHT22;6764;53.250;10.410;2022-07-12T01:42:01;15.60;99.90
13389;DHT22;6764;53.250;10.410;2022-07-12T01:44:27;15.50;99.90
13389;DHT22;6764;53.250;10.410;2022-07-12T01:46:52;15.50;99.90
13389;DHT22;6764;53.250;10.410;2022-07-12T01:49:18;15.50;99.90
13389;DHT22;6764;53.250;10.410;2022-07-12T01:51:43;15.40;99.90
13389;DHT22;6764;53.250;10.410;2022-07-12T01:54:09;15.40;99.90
13389;DHT22;6764;53.250;10.410;2022-07-12T01:56:35;15.40;99.90
13389;DHT22;6764;53.250;10.410;2022-07-12T01:59:01;15.40;99.90
13389;DHT22;6764;53.250;10.410;2022-07-12T02:01:27;15.30;99.90
13389;DHT22;6764;53.250;10.410;2022-07-12T02:03:54;15.30;99.90
13389;DHT22;6764;53.250;10.410;2022-07-12T02:06:20;15.30;99.90
13389;DHT22;6764;53.250;10.410;2022-07-12T02:08:45;15.20;99.90
13389;DHT22;6764;53.250;10.410;2022-07-12T02:11:11;15.20;99.90
13389;DHT22;6764;53.250;10.410;2022-07-12T02:13:37;15.20;99.90
13389;DHT22;6764;53.250;10.410;2022-07-12T02:16:04;15.20;99.90
13389;DHT22;6764;53.250;10.410;2022-07-12T02:18:32;15.10;99.90
13389;DHT22;6764;53.250;10.410;2022-07-12T02:20:58;15.10;99.90
13389;DHT22;6764;53.250;10.410;2022-07-12T02:23:24;15.10;99.90
13389;DHT22;6764;53.250;10.410;2022-07-12T02:25:49;15.10;99.90
13389;DHT22;6764;53.250;10.410;2022-07-12T02:28:15;15.00;99.90
13389;DHT22;6764;53.250;10.410;2022-07-12T02:30:41;15.00;99.90
13389;DHT22;6764;53.250;10.410;2022-07-12T02:33:06;15.00;99.90
13389;DHT22;6764;53.250;10.410;2022-07-12T02:35:32;15.00;99.90
13389;DHT22;6764;53.250;10.410;2022-07-12T02:37:57;15.00;99.90
13389;DHT22;6764;53.250;10.410;2022-07-12T02:40:23;14.90;99.90
13389;DHT22;6764;53.250;10.410;2022-07-12T02:43:07;14.90;99.90
13389;DHT22;6764;53.250;10.410;2022-07-12T02:45:33;14.90;99.90
13389;DHT22;6764;53.250;10.410;2022-07-12T02:47:58;14.80;99.90
13389;DHT22;6764;53.250;10.410;2022-07-12T02:50:24;14.80;99.90
13389;DHT22;6764;53.250;10.410;2022-07-12T02:52:50;14.80;99.90
13389;DHT22;6764;53.250;10.410;2022-07-12T02:55:15;14.80;99.90
13389;DHT22;6764;53.250;10.410;2022-07-12T02:57:41;14.80;99.90
13389;DHT22;6764;53.250;10.410;2022-07-12T03:00:07;14.80;99.90
13389;DHT22;6764;53.250;10.410;2022-07-12T03:02:33;14.80;99.90
13389;DHT22;6764;53.250;10.410;2022-07-12T03:04:59;14.80;99.90
13389;DHT22;6764;53.250;10.410;2022-07-12T03:07:24;14.80;99.90
13389;DHT22;6764;53.250;10.410;2022-07-12T03:09:50;14.80;99.90
13389;DHT22;6764;53.250;10.410;2022-07-12T03:12:15;14.80;99.90
13389;DHT22;6764;53.250;10.410;2022-07-12T03:14:41;14.80;99.90
13389;DHT22;6764;53.250;10.410;2022-07-12T03:17:07;14.70;99.90
13389;DHT22;6764;53.250;10.410;2022-07-12T03:19:33;14.70;99.90
13389;DHT22;6764;53.250;10.410;2022-07-12T03:21:58;14.70;99.90
13389;DHT22;6764;53.250;10.410;2022-07-12T03:24:24;14.70;99.90
13389;DHT22;6764;53.250;10.410;2022-07-12T03:26:49;14.70;99.90
13389;DHT22;6764;53.250;10.410;2022-07-12T03:29:16;14.70;99.90
13389;DHT22;6764;53.250;10.410;2022-07-12T03:31:42;14.70;99.90
13389;DHT22;6764;53.250;10.410;2022-07-12T03:34:07;14.70;99.90
13389;DHT22;6764;53.250;10.410;2022-07-12T03:36:33;14.70;99.90
13389;DHT22;6764;53.250;10.410;2022-07-12T03:38:59;14.70;99.90
13389;DHT22;6764;53.250;10.410;2022-07-12T03:41:24;14.70;99.90
13389;DHT22;6764;53.250;10.410;2022-07-12T03:43:50;14.70;99.90
13389;DHT22;6764;53.250;10.410;2022-07-12T03:46:15;14.70;99.90
13389;DHT22;6764;53.250;10.410;2022-07-12T03:48:41;14.70;99.90
13389;DHT22;6764;53.250;10.410;2022-07-12T03:51:09;14.70;99.90
13389;DHT22;6764;53.250;10.410;2022-07-12T03:53:35;14.70;99.90
13389;DHT22;6764;53.250;10.410;2022-07-12T03:56:00;14.70;99.90
13389;DHT22;6764;53.250;10.410;2022-07-12T03:58:26;14.70;99.90
13389;DHT22;6764;53.250;10.410;2022-07-12T04:00:52;14.70;99.90
13389;DHT22;6764;53.250;10.410;2022-07-12T04:03:17;14.70;99.90
13389;DHT22;6764;53.250;10.410;2022-07-12T04:05:43;14.70;99.90
13389;DHT22;6764;53.250;10.410;2022-07-12T04:08:09;14.70;99.90
13389;DHT22;6764;53.250;10.410;2022-07-12T04:10:34;14.70;99.90
13389;DHT22;6764;53.250;10.410;2022-07-12T04:13:00;14.70;99.90
13389;DHT22;6764;53.250;10.410;2022-07-12T04:15:26;14.70;99.90
13389;DHT22;6764;53.250;10.410;2022-07-12T04:17:51;14.70;99.90
13389;DHT22;6764;53.250;10.410;2022-07-12T04:20:17;14.80;99.90
13389;DHT22;6764;53.250;10.410;2022-07-12T04:22:42;14.80;99.90
13389;DHT22;6764;53.250;10.410;2022-07-12T04:25:08;14.80;99.90
13389;DHT22;6764;53.250;10.410;2022-07-12T04:27:35;14.80;99.90
13389;DHT22;6764;53.250;10.410;2022-07-12T04:30:01;14.90;99.90
13389;DHT22;6764;53.250;10.410;2022-07-12T04:32:27;14.90;99.90
13389;DHT22;6764;53.250;10.410;2022-07-12T04:34:52;14.90;99.90
13389;DHT22;6764;53.250;10.410;2022-07-12T04:37:18;15.00;99.90
13389;DHT22;6764;53.250;10.410;2022-07-12T04:39:43;15.10;99.90
13389;DHT22;6764;53.250;10.410;2022-07-12T04:42:09;15.10;99.90
13389;DHT22;6764;53.250;10.410;2022-07-12T04:44:35;15.10;99.90
13389;DHT22;6764;53.250;10.410;2022-07-12T04:47:00;15.20;99.90
13389;DHT22;6764;53.250;10.410;2022-07-12T04:49:26;15.20;99.90
13389;DHT22;6764;53.250;10.410;2022-07-12T04:51:51;15.20;99.90
13389;DHT22;6764;53.250;10.410;2022-07-12T04:54:17;15.30;99.90
13389;DHT22;6764;53.250;10.410;2022-07-12T04:56:43;15.30;99.90
13389;DHT22;6764;53.250;10.410;2022-07-12T04:59:08;15.30;99.90
13389;DHT22;6764;53.250;10.410;2022-07-12T05:01:34;15.40;99.90
13389;DHT22;6764;53.250;10.410;2022-07-12T05:04:00;15.40;99.90
13389;DHT22;6764;53.250;10.410;2022-07-12T05:06:25;15.40;99.90
13389;DHT22;6764;53.250;10.410;2022-07-12T05:08:51;15.50;99.90
13389;DHT22;6764;53.250;10.410;2022-07-12T05:11:17;15.50;99.90
13389;DHT22;6764;53.250;10.410;2022-07-12T05:13:43;15.50;99.90
13389;DHT22;6764;53.250;10.410;2022-07-12T05:16:08;15.60;99.90
13389;DHT22;6764;53.250;10.410;2022-07-12T05:18:35;15.60;99.90
13389;DHT22;6764;53.250;10.410;2022-07-12T05:21:01;15.60;99.90
13389;DHT22;6764;53.250;10.410;2022-07-12T05:23:26;15.70;99.90
13389;DHT22;6764;53.250;10.410;2022-07-12T05:25:52;15.70;99.90
13389;DHT22;6764;53.250;10.410;2022-07-12T05:28:18;15.70;99.90
13389;DHT22;6764;53.250;10.410;2022-07-12T05:30:44;15.70;99.90
13389;DHT22;6764;53.250;10.410;2022-07-12T05:33:10;15.80;99.90
13389;DHT22;6764;53.250;10.410;2022-07-12T05:35:35;15.80;99.90
13389;DHT22;6764;53.250;10.410;2022-07-12T05:38:01;15.90;99.90
13389;DHT22;6764;53.250;10.410;2022-07-12T05:40:27;15.90;99.90
13389;DHT22;6764;53.250;10.410;2022-07-12T05:42:53;16.00;99.90
13389;DHT22;6764;53.250;10.410;2022-07-12T05:45:19;16.10;99.90
13389;DHT22;6764;53.250;10.410;2022-07-12T05:47:44;16.10;99.90
13389;DHT22;6764;53.250;10.410;2022-07-12T05:50:10;16.10;99.90
13389;DHT22;6764;53.250;10.410;2022-07-12T05:52:36;16.20;99.90
13389;DHT22;6764;53.250;10.410;2022-07-12T05:55:20;16.30;99.90
13389;DHT22;6764;53.250;10.410;2022-07-12T05:57:46;16.40;99.90
13389;DHT22;6764;53.250;10.410;2022-07-12T06:00:12;16.60;99.90
13389;DHT22;6764;53.250;10.410;2022-07-12T06:02:38;16.80;99.90
13389;DHT22;6764;53.250;10.410;2022-07-12T06:05:04;17.00;99.90
13389;DHT22;6764;53.250;10.410;2022-07-12T06:07:30;17.10;99.90
13389;DHT22;6764;53.250;10.410;2022-07-12T06:09:56;17.40;99.90
13389;DHT22;6764;53.250;10.410;2022-07-12T06:12:21;17.60;99.90
13389;DHT22;6764;53.250;10.410;2022-07-12T06:14:47;17.80;99.90
13389;DHT22;6764;53.250;10.410;2022-07-12T06:17:13;18.10;99.90
13389;DHT22;6764;53.250;10.410;2022-07-12T06:19:39;18.30;99.90
13389;DHT22;6764;53.250;10.410;2022-07-12T06:22:04;18.60;99.90
13389;DHT22;6764;53.250;10.410;2022-07-12T06:24:30;18.70;99.90
13389;DHT22;6764;53.250;10.410;2022-07-12T06:26:55;18.90;99.90
13389;DHT22;6764;53.250;10.410;2022-07-12T06:29:21;19.20;99.90
13389;DHT22;6764;53.250;10.410;2022-07-12T06:31:47;19.50;99.90
13389;DHT22;6764;53.250;10.410;2022-07-12T06:34:12;19.80;99.90
13389;DHT22;6764;53.250;10.410;2022-07-12T06:36:38;20.30;99.90
13389;DHT22;6764;53.250;10.410;2022-07-12T06:39:03;20.70;99.90
13389;DHT22;6764;53.250;10.410;2022-07-12T06:41:29;20.90;99.90
13389;DHT22;6764;53.250;10.410;2022-07-12T06:43:55;21.10;99.90
13389;DHT22;6764;53.250;10.410;2022-07-12T06:46:21;21.20;99.90
13389;DHT22;6764;53.250;10.410;2022-07-12T06:48:46;21.40;99.90
13389;DHT22;6764;53.250;10.410;2022-07-12T06:51:13;21.80;99.90
13389;DHT22;6764;53.250;10.410;2022-07-12T06:53:38;22.50;99.90
13389;DHT22;6764;53.250;10.410;2022-07-12T06:56:04;23.70;99.90
13389;DHT22;6764;53.250;10.410;2022-07-12T06:58:29;24.70;99.90
13389;DHT22;6764;53.250;10.410;2022-07-12T07:00:55;24.90;99.60
13389;DHT22;6764;53.250;10.410;2022-07-12T07:03:21;24.70;99.40
13389;DHT22;6764;53.250;10.410;2022-07-12T07:05:46;24.70;99.80
13389;DHT22;6764;53.250;10.410;2022-07-12T07:08:12;25.00;98.80
13389;DHT22;6764;53.250;10.410;2022-07-12T07:10:37;24.80;98.20
13389;DHT22;6764;53.250;10.410;2022-07-12T07:13:03;24.60;98.60
13389;DHT22;6764;53.250;10.410;2022-07-12T07:15:29;24.30;99.10
13389;DHT22;6764;53.250;10.410;2022-07-12T07:17:54;24.50;99.00
13389;DHT22;6764;53.250;10.410;2022-07-12T07:20:20;24.80;98.40
13389;DHT22;6764;53.250;10.410;2022-07-12T07:22:46;25.00;98.10
13389;DHT22;6764;53.250;10.410;2022-07-12T07:25:13;25.20;97.20
13389;DHT22;6764;53.250;10.410;2022-07-12T07:27:39;25.50;97.00
13389;DHT22;6764;53.250;10.410;2022-07-12T07:30:05;25.90;96.30
13389;DHT22;6764;53.250;10.410;2022-07-12T07:32:49;26.30;95.40
13389;DHT22;6764;53.250;10.410;2022-07-12T07:35:15;26.80;94.90
13389;DHT22;6764;53.250;10.410;2022-07-12T07:37:40;27.50;93.30
13389;DHT22;6764;53.250;10.410;2022-07-12T07:40:07;27.80;92.40
13389;DHT22;6764;53.250;10.410;2022-07-12T07:42:32;28.30;91.60
13389;DHT22;6764;53.250;10.410;2022-07-12T07:44:58;28.70;90.40
13389;DHT22;6764;53.250;10.410;2022-07-12T07:47:23;28.60;89.50
13389;DHT22;6764;53.250;10.410;2022-07-12T07:49:49;28.40;90.40
13389;DHT22;6764;53.250;10.410;2022-07-12T07:52:15;28.20;90.10
13389;DHT22;6764;53.250;10.410;2022-07-12T07:54:40;27.70;90.60
13389;DHT22;6764;53.250;10.410;2022-07-12T07:57:06;27.40;90.80
13389;DHT22;6764;53.250;10.410;2022-07-12T07:59:31;27.30;90.90
13389;DHT22;6764;53.250;10.410;2022-07-12T08:01:57;27.00;91.20
13389;DHT22;6764;53.250;10.410;2022-07-12T08:04:22;26.90;91.30
13389;DHT22;6764;53.250;10.410;2022-07-12T08:06:49;26.80;91.40
13389;DHT22;6764;53.250;10.410;2022-07-12T08:09:15;26.60;91.60
13389;DHT22;6764;53.250;10.410;2022-07-12T08:11:42;26.60;91.70
13389;DHT22;6764;53.250;10.410;2022-07-12T08:14:08;26.60;91.90
13389;DHT22;6764;53.250;10.410;2022-07-12T08:16:35;26.50;91.90
13389;DHT22;6764;53.250;10.410;2022-07-12T08:19:01;26.30;92.20
13389;DHT22;6764;53.250;10.410;2022-07-12T08:21:27;26.30;92.20
13389;DHT22;6764;53.250;10.410;2022-07-12T08:23:53;26.00;92.20
13389;DHT22;6764;53.250;10.410;2022-07-12T08:26:19;25.80;92.80
13389;DHT22;6764;53.250;10.410;2022-07-12T08:28:45;25.60;92.90
13389;DHT22;6764;53.250;10.410;2022-07-12T08:31:11;25.60;92.90
13389;DHT22;6764;53.250;10.410;2022-07-12T08:33:39;26.00;92.70
13389;DHT22;6764;53.250;10.410;2022-07-12T08:36:05;26.30;91.80
13389;DHT22;6764;53.250;10.410;2022-07-12T08:38:32;26.70;91.40
13389;DHT22;6764;53.250;10.410;2022-07-12T08:40:59;27.50;90.70
13389;DHT22;6764;53.250;10.410;2022-07-12T08:43:24;28.00;90.10
13389;DHT22;6764;53.250;10.410;2022-07-12T08:45:50;28.10;89.70
13389;DHT22;6764;53.250;10.410;2022-07-12T08:48:15;28.20;88.40
13389;DHT22;6764;53.250;10.410;2022-07-12T08:50:41;28.10;87.90
13389;DHT22;6764;53.250;10.410;2022-07-12T08:53:10;27.70;88.40
13389;DHT22;6764;53.250;10.410;2022-07-12T08:55:36;27.30;89.60
13389;DHT22;6764;53.250;10.410;2022-07-12T08:58:04;26.80;90.30
13389;DHT22;6764;53.250;10.410;2022-07-12T09:00:33;26.40;91.00
13389;DHT22;6764;53.250;10.410;2022-07-12T09:03:01;26.50;90.60
13389;DHT22;6764;53.250;10.410;2022-07-12T09:05:30;26.50;90.90
13389;DHT22;6764;53.250;10.410;2022-07-12T09:08:09;26.80;90.90
13389;DHT22;6764;53.250;10.410;2022-07-12T09:13:18;27.00;90.60
13389;DHT22;6764;53.250;10.410;2022-07-12T09:15:44;26.80;90.60
13389;DHT22;6764;53.250;10.410;2022-07-12T09:18:12;26.80;90.70
13389;DHT22;6764;53.250;10.410;2022-07-12T09:20:42;26.70;90.60
13389;DHT22;6764;53.250;10.410;2022-07-12T09:23:15;27.10;90.90
13389;DHT22;6764;53.250;10.410;2022-07-12T09:25:44;27.50;90.30
13389;DHT22;6764;53.250;10.410;2022-07-12T09:28:10;27.70;90.00
13389;DHT22;6764;53.250;10.410;2022-07-12T09:30:47;28.20;88.70
13389;DHT22;6764;53.250;10.410;2022-07-12T09:33:13;28.70;87.10
13389;DHT22;6764;53.250;10.410;2022-07-12T09:36:01;29.00;86.20
13389;DHT22;6764;53.250;10.410;2022-07-12T09:38:33;29.50;85.10
13389;DHT22;6764;53.250;10.410;2022-07-12T09:41:00;29.90;83.80
13389;DHT22;6764;53.250;10.410;2022-07-12T09:43:26;31.10;81.40
13389;DHT22;6764;53.250;10.410;2022-07-12T09:45:52;31.30;79.70
13389;DHT22;6764;53.250;10.410;2022-07-12T09:48:22;31.10;80.00
13389;DHT22;6764;53.250;10.410;2022-07-12T09:50:51;31.30;79.40
13389;DHT22;6764;53.250;10.410;2022-07-12T09:53:27;31.50;78.60
13389;DHT22;6764;53.250;10.410;2022-07-12T09:55:52;31.20;78.70
13389;DHT22;6764;53.250;10.410;2022-07-12T09:58:31;30.90;79.00
13389;DHT22;6764;53.250;10.410;2022-07-12T10:00:59;30.90;79.60
13389;DHT22;6764;53.250;10.410;2022-07-12T10:03:30;30.80;80.40
13389;DHT22;6764;53.250;10.410;2022-07-12T10:06:00;31.10;78.80
13389;DHT22;6764;53.250;10.410;2022-07-12T10:08:26;31.70;78.00
13389;DHT22;6764;53.250;10.410;2022-07-12T10:10:53;31.90;76.90
13389;DHT22;6764;53.250;10.410;2022-07-12T10:13:20;31.90;76.60
13389;DHT22;6764;53.250;10.410;2022-07-12T10:15:47;32.20;76.10
13389;DHT22;6764;53.250;10.410;2022-07-12T10:18:21;32.10;76.90
13389;DHT22;6764;53.250;10.410;2022-07-12T10:20:49;32.60;75.20
13389;DHT22;6764;53.250;10.410;2022-07-12T10:23:28;33.10;72.90
13389;DHT22;6764;53.250;10.410;2022-07-12T10:25:55;33.50;72.60
13389;DHT22;6764;53.250;10.410;2022-07-12T10:28:21;34.30;70.80
13389;DHT22;6764;53.250;10.410;2022-07-12T10:30:49;34.40;69.30
13389;DHT22;6764;53.250;10.410;2022-07-12T10:33:16;34.40;69.50
13389;DHT22;6764;53.250;10.410;2022-07-12T10:38:32;34.10;68.60
13389;DHT22;6764;53.250;10.410;2022-07-12T10:40:57;33.90;69.10
13389;DHT22;6764;53.250;10.410;2022-07-12T10:43:25;34.20;68.60
13389;DHT22;6764;53.250;10.410;2022-07-12T10:46:22;34.10;68.90
13389;DHT22;6764;53.250;10.410;2022-07-12T10:48:49;34.20;68.80
13389;DHT22;6764;53.250;10.410;2022-07-12T10:51:16;34.20;68.30
13389;DHT22;6764;53.250;10.410;2022-07-12T10:53:44;34.20;68.50
13389;DHT22;6764;53.250;10.410;2022-07-12T10:56:18;34.10;68.50
13389;DHT22;6764;53.250;10.410;2022-07-12T10:58:47;33.90;68.60
13389;DHT22;6764;53.250;10.410;2022-07-12T11:01:15;34.60;68.10
13389;DHT22;6764;53.250;10.410;2022-07-12T11:03:42;35.70;66.30
13389;DHT22;6764;53.250;10.410;2022-07-12T11:06:10;36.30;65.30
13389;DHT22;6764;53.250;10.410;2022-07-12T11:11:28;37.00;62.30
13389;DHT22;6764;53.250;10.410;2022-07-12T11:13:55;37.60;61.40
13389;DHT22;6764;53.250;10.410;2022-07-12T11:16:21;38.20;60.10
13389;DHT22;6764;53.250;10.410;2022-07-12T11:18:47;38.00;59.50
13389;DHT22;6764;53.250;10.410;2022-07-12T11:21:13;37.60;59.60
13389;DHT22;6764;53.250;10.410;2022-07-12T11:23:40;37.40;60.30
13389;DHT22;6764;53.250;10.410;2022-07-12T11:26:10;37.50;60.20
13389;DHT22;6764;53.250;10.410;2022-07-12T11:28:37;38.00;59.20
13389;DHT22;6764;53.250;10.410;2022-07-12T11:31:15;37.80;59.30
13389;DHT22;6764;53.250;10.410;2022-07-12T11:33:46;37.60;58.50
13389;DHT22;6764;53.250;10.410;2022-07-12T11:36:14;37.60;57.30
13389;DHT22;6764;53.250;10.410;2022-07-12T11:38:42;37.40;57.40
13389;DHT22;6764;53.250;10.410;2022-07-12T11:41:09;37.40;57.60
13389;DHT22;6764;53.250;10.410;2022-07-12T11:43:36;36.70;58.40
13389;DHT22;6764;53.250;10.410;2022-07-12T11:46:03;35.30;60.20
13389;DHT22;6764;53.250;10.410;2022-07-12T11:48:29;33.90;61.60
13389;DHT22;6764;53.250;10.410;2022-07-12T11:51:14;33.00;63.60
13389;DHT22;6764;53.250;10.410;2022-07-12T11:53:40;32.00;66.20
13389;DHT22;6764;53.250;10.410;2022-07-12T11:56:08;31.20;67.30
13389;DHT22;6764;53.250;10.410;2022-07-12T11:58:34;30.80;68.80
13389;DHT22;6764;53.250;10.410;2022-07-12T12:01:04;30.30;70.50
13389;DHT22;6764;53.250;10.410;2022-07-12T12:03:30;30.00;71.80
13389;DHT22;6764;53.250;10.410;2022-07-12T12:05:58;29.80;72.60
13389;DHT22;6764;53.250;10.410;2022-07-12T12:08:24;29.40;72.00
13389;DHT22;6764;53.250;10.410;2022-07-12T12:10:55;29.20;72.40
13389;DHT22;6764;53.250;10.410;2022-07-12T12:13:21;29.10;73.30
13389;DHT22;6764;53.250;10.410;2022-07-12T12:15:54;28.90;72.50
13389;DHT22;6764;53.250;10.410;2022-07-12T12:18:33;28.80;72.50
13389;DHT22;6764;53.250;10.410;2022-07-12T12:21:05;28.60;73.10
13389;DHT22;6764;53.250;10.410;2022-07-12T12:23:31;28.50;73.10
13389;DHT22;6764;53.250;10.410;2022-07-12T12:26:09;28.50;72.60
13389;DHT22;6764;53.250;10.410;2022-07-12T12:28:54;28.50;73.00
13389;DHT22;6764;53.250;10.410;2022-07-12T12:31:21;28.40;72.60
13389;DHT22;6764;53.250;10.410;2022-07-12T12:33:49;28.30;72.20
13389;DHT22;6764;53.250;10.410;2022-07-12T12:36:35;28.30;72.00
13389;DHT22;6764;53.250;10.410;2022-07-12T12:39:01;28.20;71.70
13389;DHT22;6764;53.250;10.410;2022-07-12T12:41:29;28.30;71.90
13389;DHT22;6764;53.250;10.410;2022-07-12T12:44:03;28.20;72.20
13389;DHT22;6764;53.250;10.410;2022-07-12T12:49:18;28.20;74.20
13389;DHT22;6764;53.250;10.410;2022-07-12T12:51:54;28.20;74.90
13389;DHT22;6764;53.250;10.410;2022-07-12T12:54:36;28.10;75.00
13389;DHT22;6764;53.250;10.410;2022-07-12T12:57:04;28.20;75.30
13389;DHT22;6764;53.250;10.410;2022-07-12T12:59:30;28.20;75.30
13389;DHT22;6764;53.250;10.410;2022-07-12T13:01:56;28.10;75.40
13389;DHT22;6764;53.250;10.410;2022-07-12T13:04:21;28.10;74.40
13389;DHT22;6764;53.250;10.410;2022-07-12T13:06:47;28.10;75.70
13389;DHT22;6764;53.250;10.410;2022-07-12T13:11:58;28.00;76.30
13389;DHT22;6764;53.250;10.410;2022-07-12T13:14:24;28.10;75.60
13389;DHT22;6764;53.250;10.410;2022-07-12T13:16:49;28.20;76.60
13389;DHT22;6764;53.250;10.410;2022-07-12T13:19:15;28.10;76.50
13389;DHT22;6764;53.250;10.410;2022-07-12T13:21:41;28.20;77.00
13389;DHT22;6764;53.250;10.410;2022-07-12T13:24:25;28.20;76.90
13389;DHT22;6764;53.250;10.410;2022-07-12T13:26:51;28.10;76.00
13389;DHT22;6764;53.250;10.410;2022-07-12T13:29:17;28.10;76.10
13389;DHT22;6764;53.250;10.410;2022-07-12T13:34:26;28.40;75.30
13389;DHT22;6764;53.250;10.410;2022-07-12T13:36:52;28.40;74.00
13389;DHT22;6764;53.250;10.410;2022-07-12T13:39:18;28.50;74.80
13389;DHT22;6764;53.250;10.410;2022-07-12T13:42:02;28.50;75.40
13389;DHT22;6764;53.250;10.410;2022-07-12T13:44:28;28.50;74.10
13389;DHT22;6764;53.250;10.410;2022-07-12T13:46:54;28.50;75.00
13389;DHT22;6764;53.250;10.410;2022-07-12T13:49:19;28.60;75.00
13389;DHT22;6764;53.250;10.410;2022-07-12T13:51:45;28.60;74.60
13389;DHT22;6764;53.250;10.410;2022-07-12T13:54:10;28.60;74.40
13389;DHT22;6764;53.250;10.410;2022-07-12T13:56:36;28.50;74.60
13389;DHT22;6764;53.250;10.410;2022-07-12T13:59:02;28.50;73.70
13389;DHT22;6764;53.250;10.410;2022-07-12T14:01:29;28.50;73.90
13389;DHT22;6764;53.250;10.410;2022-07-12T14:03:54;28.40;72.00
13389;DHT22;6764;53.250;10.410;2022-07-12T14:06:20;28.30;71.90
13389;DHT22;6764;53.250;10.410;2022-07-12T14:08:46;28.30;70.30
13389;DHT22;6764;53.250;10.410;2022-07-12T14:11:11;28.40;71.50
13389;DHT22;6764;53.250;10.410;2022-07-12T14:13:37;28.30;72.40
13389;DHT22;6764;53.250;10.410;2022-07-12T14:16:03;28.40;72.20
13389;DHT22;6764;53.250;10.410;2022-07-12T14:18:30;28.40;72.30
13389;DHT22;6764;53.250;10.410;2022-07-12T14:20:55;28.40;71.80
13389;DHT22;6764;53.250;10.410;2022-07-12T14:23:21;28.20;72.60
13389;DHT22;6764;53.250;10.410;2022-07-12T14:25:47;28.00;73.30
13389;DHT22;6764;53.250;10.410;2022-07-12T14:28:12;28.00;72.00
13389;DHT22;6764;53.250;10.410;2022-07-12T14:30:38;27.90;73.40
13389;DHT22;6764;53.250;10.410;2022-07-12T14:33:03;28.00;73.70
13389;DHT22;6764;53.250;10.410;2022-07-12T14:35:29;27.90;73.90
13389;DHT22;6764;53.250;10.410;2022-07-12T14:37:55;27.90;75.10
13389;DHT22;6764;53.250;10.410;2022-07-12T14:40:20;27.80;75.10
13389;DHT22;6764;53.250;10.410;2022-07-12T14:42:46;27.80;76.10
13389;DHT22;6764;53.250;10.410;2022-07-12T14:45:11;27.90;75.80
13389;DHT22;6764;53.250;10.410;2022-07-12T14:47:38;28.00;75.90
13389;DHT22;6764;53.250;10.410;2022-07-12T14:50:04;28.10;75.30
13389;DHT22;6764;53.250;10.410;2022-07-12T14:52:30;28.10;75.30
13389;DHT22;6764;53.250;10.410;2022-07-12T14:54:56;28.10;75.50
13389;DHT22;6764;53.250;10.410;2022-07-12T14:57:21;28.10;75.60
13389;DHT22;6764;53.250;10.410;2022-07-12T14:59:47;28.20;74.00
13389;DHT22;6764;53.250;10.410;2022-07-12T15:02:13;28.30;74.40
13389;DHT22;6764;53.250;10.410;2022-07-12T15:04:57;28.50;73.00
13389;DHT22;6764;53.250;10.410;2022-07-12T15:07:28;28.30;72.40
13389;DHT22;6764;53.250;10.410;2022-07-12T15:09:53;28.30;72.80
13389;DHT22;6764;53.250;10.410;2022-07-12T15:12:19;28.40;74.90
13389;DHT22;6764;53.250;10.410;2022-07-12T15:14:44;28.30;73.00
13389;DHT22;6764;53.250;10.410;2022-07-12T15:17:29;28.30;72.60
13389;DHT22;6764;53.250;10.410;2022-07-12T15:19:54;28.20;73.00
13389;DHT22;6764;53.250;10.410;2022-07-12T15:22:20;28.20;73.80
13389;DHT22;6764;53.250;10.410;2022-07-12T15:24:45;28.10;74.90
13389;DHT22;6764;53.250;10.410;2022-07-12T15:27:11;27.70;77.30
13389;DHT22;6764;53.250;10.410;2022-07-12T15:29:38;27.70;73.40
13389;DHT22;6764;53.250;10.410;2022-07-12T15:32:06;27.80;71.80
13389;DHT22;6764;53.250;10.410;2022-07-12T15:34:32;27.80;72.40
13389;DHT22;6764;53.250;10.410;2022-07-12T15:36:58;27.80;71.30
13389;DHT22;6764;53.250;10.410;2022-07-12T15:39:23;27.80;72.00
13389;DHT22;6764;53.250;10.410;2022-07-12T15:41:49;27.80;72.30
13389;DHT22;6764;53.250;10.410;2022-07-12T15:44:17;27.90;73.10
13389;DHT22;6764;53.250;10.410;2022-07-12T15:46:44;27.80;73.80